createdAt,value
2017-09-05T00:00:05.512Z,94696.84
2017-09-05T00:02:33.280Z,94697.47
2017-09-05T00:05:01.002Z,94697.64
2017-09-05T00:07:30.638Z,94701.14
2017-09-05T00:10:04.838Z,94703.94
2017-09-05T00:12:37.967Z,94704.73
2017-09-05T00:15:07.336Z,94704.23
2017-09-05T00:20:38.333Z,94710.02
2017-09-05T00:23:09.895Z,94712.92
2017-09-05T00:25:37.720Z,94700.45
2017-09-05T00:28:06.181Z,94698.66
2017-09-05T00:30:33.900Z,94697.84
2017-09-05T00:33:01.699Z,94700.95
2017-09-05T00:35:29.416Z,94703.03
2017-09-05T00:37:57.221Z,94700.23
2017-09-05T00:40:24.931Z,94696.95
2017-09-05T00:42:52.739Z,94697.73
2017-09-05T00:45:20.586Z,94705.32
2017-09-05T00:47:48.326Z,94702.73
2017-09-05T00:50:16.072Z,94702.94
2017-09-05T00:52:44.334Z,94695.66
2017-09-05T00:55:12.103Z,94702.54
2017-09-05T00:57:39.894Z,94703.44
2017-09-05T01:00:07.592Z,94704.84
2017-09-05T01:02:35.432Z,94707.02
2017-09-05T01:05:03.149Z,94704.03
2017-09-05T01:07:30.847Z,94704.83
2017-09-05T01:09:58.570Z,94706.40
2017-09-05T01:12:26.280Z,94707.51
2017-09-05T01:14:54.119Z,94704.12
2017-09-05T01:17:21.832Z,94706.91
2017-09-05T01:19:49.621Z,94708.31
2017-09-05T01:22:17.426Z,94708.21
2017-09-05T01:24:45.128Z,94707.69
2017-09-05T01:27:12.823Z,94704.19
2017-09-05T01:29:40.574Z,94707.58
2017-09-05T01:32:08.246Z,94699.80
2017-09-05T01:34:36.793Z,94697.22
2017-09-05T01:37:04.547Z,94697.23
2017-09-05T01:39:32.365Z,94690.83
2017-09-05T01:42:01.150Z,94688.43
2017-09-05T01:44:28.850Z,94687.42
2017-09-05T01:46:56.587Z,94685.14
2017-09-05T01:49:24.275Z,94685.73
2017-09-05T01:51:51.935Z,94686.13
2017-09-05T01:54:19.651Z,94687.58
2017-09-05T01:56:47.346Z,94684.30
2017-09-05T01:59:15.066Z,94680.61
2017-09-05T02:01:42.775Z,94677.91
2017-09-05T02:04:10.540Z,94673.36
2017-09-05T02:06:38.412Z,94682.20
2017-09-05T02:09:06.086Z,94682.61
2017-09-05T02:11:33.849Z,94680.36
2017-09-05T02:14:01.523Z,94677.92
2017-09-05T02:16:29.256Z,94687.65
2017-09-05T02:18:56.977Z,94690.75
2017-09-05T02:21:24.725Z,94697.27
2017-09-05T02:23:52.511Z,94692.14
2017-09-05T02:26:20.210Z,94679.66
2017-09-05T02:28:47.979Z,94683.95
2017-09-05T02:31:15.669Z,94681.75
2017-09-05T02:33:43.447Z,94680.87
2017-09-05T02:36:11.170Z,94684.86
2017-09-05T02:38:38.854Z,94681.78
2017-09-05T02:41:06.573Z,94687.67
2017-09-05T02:43:34.277Z,94690.97
2017-09-05T02:46:01.990Z,94683.97
2017-09-05T02:48:29.703Z,94682.58
2017-09-05T02:50:57.395Z,94688.77
2017-09-05T02:53:25.181Z,94678.70
2017-09-05T02:55:53.855Z,94684.00
2017-09-05T02:58:21.665Z,94676.81
2017-09-05T03:00:49.616Z,94678.32
2017-09-05T03:03:17.352Z,94686.69
2017-09-05T03:05:45.099Z,94677.54
2017-09-05T03:08:12.911Z,94680.58
2017-09-05T03:10:40.756Z,94673.11
2017-09-05T03:13:08.427Z,94684.62
2017-09-05T03:15:36.127Z,94682.44
2017-09-05T03:18:03.909Z,94679.82
2017-09-05T03:20:31.647Z,94686.51
2017-09-05T03:22:59.397Z,94681.02
2017-09-05T03:25:27.131Z,94682.55
2017-09-05T03:27:54.903Z,94681.52
2017-09-05T03:30:22.691Z,94683.97
2017-09-05T03:32:50.385Z,94688.48
2017-09-05T03:35:18.127Z,94687.83
2017-09-05T03:37:45.833Z,94687.77
2017-09-05T03:40:13.623Z,94698.14
2017-09-05T03:42:41.288Z,94699.41
2017-09-05T03:45:08.986Z,94695.59
2017-09-05T03:47:36.753Z,94692.67
2017-09-05T03:50:04.427Z,94693.98
2017-09-05T03:52:32.108Z,94684.12
2017-09-05T03:54:59.840Z,94685.64
2017-09-05T03:57:28.676Z,94686.22
2017-09-05T03:59:56.349Z,94687.42
2017-09-05T04:02:24.080Z,94684.36
2017-09-05T04:04:51.807Z,94682.76
2017-09-05T04:07:19.506Z,94687.20
2017-09-05T04:09:47.267Z,94693.05
2017-09-05T04:12:14.951Z,94692.39
2017-09-05T04:14:42.679Z,94705.06
2017-09-05T04:17:10.418Z,94709.15
2017-09-05T04:19:38.176Z,94699.02
2017-09-05T04:22:05.847Z,94704.00
2017-09-05T04:24:33.557Z,94707.14
2017-09-05T04:27:02.161Z,94705.16
2017-09-05T04:29:29.996Z,94705.48
2017-09-05T04:31:57.662Z,94715.43
2017-09-05T04:34:27.811Z,94720.81
2017-09-05T04:36:55.516Z,94729.63
2017-09-05T04:39:23.236Z,94728.92
2017-09-05T04:41:50.962Z,94729.03
2017-09-05T04:44:18.643Z,94733.13
2017-09-05T04:46:46.411Z,94745.81
2017-09-05T04:49:14.130Z,94744.13
2017-09-05T04:51:41.828Z,94749.56
2017-09-05T04:54:09.547Z,94748.11
2017-09-05T04:56:37.274Z,94751.09
2017-09-05T04:59:05.018Z,94750.52
2017-09-05T05:01:32.788Z,94756.58
2017-09-05T05:04:00.495Z,94763.80
2017-09-05T05:06:28.338Z,94759.16
2017-09-05T05:08:56.059Z,94760.41
2017-09-05T05:11:23.787Z,94763.00
2017-09-05T05:13:51.498Z,94763.64
2017-09-05T05:16:19.175Z,94760.31
2017-09-05T05:18:46.960Z,94757.59
2017-09-05T05:21:14.650Z,94765.09
2017-09-05T05:23:42.328Z,94749.61
2017-09-05T05:26:10.086Z,94754.39
2017-09-05T05:28:37.853Z,94747.63
2017-09-05T05:31:05.543Z,94756.59
2017-09-05T05:33:33.305Z,94750.39
2017-09-05T05:36:01.116Z,94760.03
2017-09-05T05:38:28.875Z,94759.98
2017-09-05T05:40:56.620Z,94761.52
2017-09-05T05:43:24.419Z,94759.22
2017-09-05T05:45:52.157Z,94762.95
2017-09-05T05:48:19.837Z,94770.62
2017-09-05T05:50:47.606Z,94770.33
2017-09-05T05:53:15.279Z,94776.11
2017-09-05T05:55:43.057Z,94776.52
2017-09-05T05:58:10.880Z,94772.93
2017-09-05T06:00:38.631Z,94771.03
2017-09-05T06:03:06.317Z,94772.61
2017-09-05T06:05:34.093Z,94780.70
2017-09-05T06:08:01.807Z,94772.72
2017-09-05T06:10:29.586Z,94771.08
2017-09-05T06:12:57.300Z,94769.02
2017-09-05T06:15:25.112Z,94770.81
2017-09-05T06:17:52.918Z,94776.62
2017-09-05T06:20:20.712Z,94775.28
2017-09-05T06:22:48.426Z,94774.02
2017-09-05T06:25:16.222Z,94771.53
2017-09-05T06:27:43.934Z,94769.72
2017-09-05T06:30:11.861Z,94766.31
2017-09-05T06:32:39.628Z,94769.47
2017-09-05T06:35:07.345Z,94764.66
2017-09-05T06:37:35.108Z,94762.84
2017-09-05T06:40:02.871Z,94755.23
2017-09-05T06:42:30.625Z,94756.41
2017-09-05T06:44:58.856Z,94754.33
2017-09-05T06:47:26.613Z,94757.43
2017-09-05T06:49:54.312Z,94747.61
2017-09-05T06:52:22.054Z,94755.62
2017-09-05T06:54:49.859Z,94744.81
2017-09-05T06:57:17.574Z,94744.89
2017-09-05T06:59:45.342Z,94739.52
2017-09-05T07:02:13.077Z,94729.89
2017-09-05T07:04:40.788Z,94741.50
2017-09-05T07:07:08.623Z,94731.72
2017-09-05T07:09:36.349Z,94727.11
2017-09-05T07:12:04.101Z,94726.55
2017-09-05T07:14:31.804Z,94722.75
2017-09-05T07:16:59.492Z,94718.30
2017-09-05T07:19:27.256Z,94714.84
2017-09-05T07:21:54.971Z,94716.27
2017-09-05T07:24:22.790Z,94721.23
2017-09-05T07:26:50.506Z,94722.31
2017-09-05T07:29:18.218Z,94725.45
2017-09-05T07:31:45.972Z,94718.71
2017-09-05T07:34:13.738Z,94718.94
2017-09-05T07:36:41.442Z,94723.64
2017-09-05T07:39:09.241Z,94718.91
2017-09-05T07:41:36.947Z,94717.94
2017-09-05T07:44:04.646Z,94718.84
2017-09-05T07:46:32.417Z,94730.97
2017-09-05T07:49:00.206Z,94729.00
2017-09-05T07:51:27.980Z,94731.42
2017-09-05T07:53:55.777Z,94737.06
2017-09-05T07:56:23.862Z,94731.10
2017-09-05T07:58:51.635Z,94728.58
2017-09-05T08:01:19.352Z,94728.73
2017-09-05T08:03:47.066Z,94726.14
2017-09-05T08:06:14.828Z,94732.38
2017-09-05T08:08:42.640Z,94728.80
2017-09-05T08:11:10.363Z,94726.78
2017-09-05T08:13:38.079Z,94711.99
2017-09-05T08:16:05.892Z,94709.12
2017-09-05T08:18:33.594Z,94705.92
2017-09-05T08:23:28.391Z,94716.68
2017-09-05T08:25:56.132Z,94708.61
2017-09-05T08:28:23.890Z,94708.80
2017-09-05T08:30:51.591Z,94712.72
2017-09-05T08:33:19.305Z,94700.11
2017-09-05T08:35:47.079Z,94699.27
2017-09-05T08:38:14.828Z,94698.75
2017-09-05T08:40:42.601Z,94695.20
2017-09-05T08:43:10.305Z,94694.61
2017-09-05T08:45:38.047Z,94699.73
2017-09-05T08:48:05.829Z,94693.41
2017-09-05T08:50:33.544Z,94690.13
2017-09-05T08:53:01.249Z,94692.47
2017-09-05T08:55:29.016Z,94689.42
2017-09-05T08:57:56.743Z,94687.16
2017-09-05T09:00:24.451Z,94683.55
2017-09-05T09:02:52.253Z,94676.38
2017-09-05T09:05:20.007Z,94673.53
2017-09-05T09:07:47.982Z,94672.30
2017-09-05T09:10:15.707Z,94662.80
2017-09-05T09:12:43.425Z,94661.80
2017-09-05T09:15:11.191Z,94663.20
2017-09-05T09:17:40.090Z,94667.36
2017-09-05T09:20:08.494Z,94662.72
2017-09-05T09:22:36.199Z,94659.00
2017-09-05T09:25:03.988Z,94650.30
2017-09-05T09:27:31.740Z,94649.36
2017-09-05T09:29:59.592Z,94649.84
2017-09-05T09:32:27.361Z,94648.16
2017-09-05T09:34:55.578Z,94656.31
2017-09-05T09:37:23.299Z,94656.28
2017-09-05T09:39:50.997Z,94659.17
2017-09-05T09:42:18.750Z,94650.31
2017-09-05T09:44:47.092Z,94645.98
2017-09-05T09:47:14.807Z,94644.81
2017-09-05T09:49:42.621Z,94648.84
2017-09-05T09:52:11.527Z,94644.55
2017-09-05T09:54:39.324Z,94650.30
2017-09-05T09:57:07.134Z,94647.80
2017-09-05T09:59:34.965Z,94650.14
2017-09-05T10:02:02.714Z,94645.61
2017-09-05T10:04:30.414Z,94654.90
2017-09-05T10:06:59.975Z,94641.25
2017-09-05T10:09:27.735Z,94639.40
2017-09-05T10:11:55.699Z,94640.81
2017-09-05T10:14:23.461Z,94635.59
2017-09-05T10:16:51.212Z,94635.98
2017-09-05T10:19:18.982Z,94631.45
2017-09-05T10:21:47.766Z,94627.14
2017-09-05T10:24:15.534Z,94623.20
2017-09-05T10:26:43.251Z,94619.19
2017-09-05T10:29:11.018Z,94613.88
2017-09-05T10:31:38.926Z,94609.59
2017-09-05T10:34:06.679Z,94610.84
2017-09-05T10:36:34.521Z,94601.81
2017-09-05T10:39:03.042Z,94597.28
2017-09-05T10:41:30.811Z,94596.16
2017-09-05T10:43:59.767Z,94590.08
2017-09-05T10:46:27.566Z,94587.17
2017-09-05T10:48:55.354Z,94587.83
2017-09-05T10:51:23.092Z,94579.27
2017-09-05T10:53:50.856Z,94583.89
2017-09-05T10:56:18.653Z,94573.75
2017-09-05T10:58:47.478Z,94573.23
2017-09-05T11:01:15.221Z,94575.98
2017-09-05T11:03:42.944Z,94570.33
2017-09-05T11:06:10.668Z,94568.27
2017-09-05T11:08:38.461Z,94563.53
2017-09-05T11:11:06.216Z,94559.77
2017-09-05T11:13:33.983Z,94557.53
2017-09-05T11:16:01.688Z,94556.00
2017-09-05T11:18:29.389Z,94553.06
2017-09-05T11:20:57.190Z,94545.78
2017-09-05T11:23:25.410Z,94554.50
2017-09-05T11:25:54.126Z,94546.59
2017-09-05T11:28:21.854Z,94542.02
2017-09-05T11:30:50.326Z,94544.17
2017-09-05T11:33:18.188Z,94547.45
2017-09-05T11:35:45.916Z,94550.13
2017-09-05T11:38:13.727Z,94542.48
2017-09-05T11:40:41.465Z,94540.95
2017-09-05T11:43:09.238Z,94540.91
2017-09-05T11:45:36.993Z,94534.60
2017-09-05T11:48:04.731Z,94530.52
2017-09-05T11:50:32.582Z,94536.61
2017-09-05T11:53:00.293Z,94536.37
2017-09-05T11:55:28.067Z,94529.95
2017-09-05T11:57:55.784Z,94529.46
2017-09-05T12:00:23.555Z,94529.76
2017-09-05T12:02:51.352Z,94522.72
2017-09-05T12:05:19.606Z,94508.34
2017-09-05T12:07:47.709Z,94514.25
2017-09-05T12:10:15.410Z,94517.50
2017-09-05T12:12:43.146Z,94507.04
2017-09-05T12:15:10.909Z,94516.98
2017-09-05T12:17:38.642Z,94512.57
2017-09-05T12:20:06.412Z,94504.96
2017-09-05T12:22:34.765Z,94506.59
2017-09-05T12:25:03.305Z,94506.52
2017-09-05T12:27:31.047Z,94501.50
2017-09-05T12:29:58.921Z,94505.78
2017-09-05T12:32:27.605Z,94506.23
2017-09-05T12:34:56.535Z,94504.93
2017-09-05T12:37:25.189Z,94503.33
2017-09-05T12:39:53.042Z,94502.02
2017-09-05T12:42:20.910Z,94503.75
2017-09-05T12:44:48.709Z,94495.48
2017-09-05T12:47:16.598Z,94496.78
2017-09-05T12:49:45.566Z,94501.43
2017-09-05T12:52:13.315Z,94500.19
2017-09-05T12:54:41.076Z,94504.02
2017-09-05T12:57:08.877Z,94503.02
2017-09-05T12:59:36.676Z,94502.49
2017-09-05T13:02:04.427Z,94492.30
2017-09-05T13:04:32.146Z,94488.52
2017-09-05T13:07:00.199Z,94492.88
2017-09-05T13:09:27.960Z,94495.25
2017-09-05T13:11:55.759Z,94496.20
2017-09-05T13:14:23.537Z,94495.12
2017-09-05T13:16:51.238Z,94497.31
2017-09-05T13:19:18.982Z,94482.06
2017-09-05T13:21:47.198Z,94500.30
2017-09-05T13:24:15.063Z,94495.70
2017-09-05T13:26:42.859Z,94497.88
2017-09-05T13:29:11.528Z,94482.60
2017-09-05T13:31:39.571Z,94485.09
2017-09-05T13:34:07.385Z,94484.58
2017-09-05T13:36:35.208Z,94481.50
2017-09-05T13:39:02.972Z,94481.83
2017-09-05T13:41:31.755Z,94476.95
2017-09-05T13:43:59.520Z,94477.70
2017-09-05T13:46:27.301Z,94476.80
2017-09-05T13:48:55.054Z,94474.13
2017-09-05T13:51:22.762Z,94471.93
2017-09-05T13:53:50.552Z,94473.19
2017-09-05T13:56:18.361Z,94481.86
2017-09-05T13:58:46.095Z,94481.20
2017-09-05T14:01:14.146Z,94476.39
2017-09-05T14:03:41.992Z,94473.02
2017-09-05T14:06:09.745Z,94475.83
2017-09-05T14:08:37.529Z,94474.56
2017-09-05T14:11:05.299Z,94479.58
2017-09-05T14:13:33.110Z,94470.69
2017-09-05T14:16:00.917Z,94467.21
2017-09-05T14:18:28.709Z,94467.67
2017-09-05T14:20:56.975Z,94465.53
2017-09-05T14:23:24.798Z,94465.56
2017-09-05T14:25:52.621Z,94474.25
2017-09-05T14:28:20.340Z,94465.96
2017-09-05T14:30:48.425Z,94471.20
2017-09-05T14:33:16.380Z,94473.85
2017-09-05T14:35:44.152Z,94474.55
2017-09-05T14:38:11.936Z,94469.09
2017-09-05T14:40:39.745Z,94472.72
2017-09-05T14:43:07.695Z,94468.56
2017-09-05T14:45:35.911Z,94471.30
2017-09-05T14:48:03.704Z,94474.80
2017-09-05T14:50:33.364Z,94461.05
2017-09-05T14:53:01.163Z,94456.69
2017-09-05T14:55:28.851Z,94462.36
2017-09-05T14:57:56.651Z,94458.17
2017-09-05T15:00:24.375Z,94458.91
2017-09-05T15:02:52.134Z,94457.86
2017-09-05T15:05:19.895Z,94459.73
2017-09-05T15:07:47.606Z,94458.26
2017-09-05T15:10:15.324Z,94458.56
2017-09-05T15:12:43.080Z,94461.12
2017-09-05T15:15:10.863Z,94461.12
2017-09-05T15:17:38.632Z,94460.69
2017-09-05T15:20:06.424Z,94470.18
2017-09-05T15:22:34.277Z,94458.61
2017-09-05T15:25:02.000Z,94458.05
2017-09-05T15:27:30.883Z,94459.53
2017-09-05T15:29:58.691Z,94464.98
2017-09-05T15:32:26.509Z,94467.78
2017-09-05T15:34:54.246Z,94462.94
2017-09-05T15:37:21.947Z,94467.69
2017-09-05T15:39:49.967Z,94463.73
2017-09-05T15:42:17.679Z,94466.90
2017-09-05T15:44:45.443Z,94466.05
2017-09-05T15:47:13.138Z,94463.75
2017-09-05T15:49:40.931Z,94463.11
2017-09-05T15:52:08.791Z,94461.94
2017-09-05T15:54:36.572Z,94467.36
2017-09-05T15:57:04.356Z,94473.30
2017-09-05T15:59:32.331Z,94463.94
2017-09-05T16:02:00.129Z,94459.36
2017-09-05T16:04:27.899Z,94463.83
2017-09-05T16:06:55.780Z,94462.25
2017-09-05T16:09:23.576Z,94463.30
2017-09-05T16:11:51.331Z,94461.59
2017-09-05T16:14:19.058Z,94464.36
2017-09-05T16:16:46.891Z,94461.47
2017-09-05T16:19:14.608Z,94463.17
2017-09-05T16:21:42.328Z,94466.22
2017-09-05T16:24:10.154Z,94465.69
2017-09-05T16:26:37.921Z,94461.48
2017-09-05T16:29:05.660Z,94461.34
2017-09-05T16:31:33.508Z,94462.00
2017-09-05T16:34:01.249Z,94461.34
2017-09-05T16:36:28.996Z,94457.77
2017-09-05T16:38:56.837Z,94463.84
2017-09-05T16:41:24.539Z,94464.88
2017-09-05T16:43:52.467Z,94467.78
2017-09-05T16:46:20.274Z,94458.50
2017-09-05T16:48:47.988Z,94457.45
2017-09-05T16:51:15.782Z,94467.02
2017-09-05T16:53:43.525Z,94464.12
2017-09-05T16:56:11.229Z,94460.19
2017-09-05T16:58:39.034Z,94460.59
2017-09-05T17:01:06.743Z,94470.03
2017-09-05T17:03:34.552Z,94458.56
2017-09-05T17:06:02.372Z,94462.37
2017-09-05T17:08:30.109Z,94458.79
2017-09-05T17:10:57.833Z,94462.88
2017-09-05T17:13:26.030Z,94461.08
2017-09-05T17:15:53.729Z,94462.73
2017-09-05T17:18:21.448Z,94463.02
2017-09-05T17:20:49.250Z,94464.95
2017-09-05T17:23:16.940Z,94465.08
2017-09-05T17:25:44.734Z,94467.10
2017-09-05T17:28:12.505Z,94472.16
2017-09-05T17:30:40.353Z,94470.33
2017-09-05T17:33:08.211Z,94467.73
2017-09-05T17:35:35.961Z,94483.98
2017-09-05T17:38:04.749Z,94486.22
2017-09-05T17:40:33.333Z,94475.89
2017-09-05T17:43:01.111Z,94475.70
2017-09-05T17:45:29.532Z,94483.20
2017-09-05T17:47:57.359Z,94482.25
2017-09-05T17:50:25.069Z,94477.80
2017-09-05T17:52:52.893Z,94482.70
2017-09-05T17:55:20.600Z,94484.53
2017-09-05T17:57:48.416Z,94493.44
2017-09-05T18:00:16.210Z,94496.27
2017-09-05T18:02:43.960Z,94496.25
2017-09-05T18:05:11.776Z,94496.77
2017-09-05T18:07:43.353Z,94495.78
2017-09-05T18:10:11.164Z,94498.66
2017-09-05T18:12:38.999Z,94507.70
2017-09-05T18:15:06.798Z,94508.34
2017-09-05T18:17:34.632Z,94507.05
2017-09-05T18:20:02.452Z,94499.55
2017-09-05T18:22:30.177Z,94508.36
2017-09-05T18:24:57.989Z,94511.66
2017-09-05T18:27:25.792Z,94516.61
2017-09-05T18:29:54.693Z,94522.68
2017-09-05T18:32:24.859Z,94524.52
2017-09-05T18:34:52.615Z,94527.19
2017-09-05T18:37:20.463Z,94520.75
2017-09-05T18:39:49.366Z,94518.09
2017-09-05T18:42:17.192Z,94517.74
2017-09-05T18:44:45.175Z,94513.28
2017-09-05T18:47:13.023Z,94518.48
2017-09-05T18:49:40.950Z,94513.60
2017-09-05T18:52:08.991Z,94519.92
2017-09-05T18:54:36.966Z,94526.42
2017-09-05T18:57:04.926Z,94531.22
2017-09-05T18:59:32.761Z,94529.48
2017-09-05T19:02:01.195Z,94525.66
2017-09-05T19:04:29.118Z,94527.62
2017-09-05T19:06:56.914Z,94528.50
2017-09-05T19:09:24.786Z,94531.25
2017-09-05T19:11:53.651Z,94535.91
2017-09-05T19:14:21.805Z,94527.64
2017-09-05T19:16:49.655Z,94529.92
2017-09-05T19:19:17.525Z,94534.34
2017-09-05T19:21:45.472Z,94528.22
2017-09-05T19:24:13.817Z,94528.39
2017-09-05T19:26:41.722Z,94528.59
2017-09-05T19:29:09.708Z,94531.50
2017-09-05T19:31:37.510Z,94529.08
2017-09-05T19:34:05.429Z,94532.38
2017-09-05T19:36:33.212Z,94537.00
2017-09-05T19:39:01.127Z,94536.39
2017-09-05T19:41:29.017Z,94538.81
2017-09-05T19:43:56.809Z,94536.83
2017-09-05T19:46:24.723Z,94536.05
2017-09-05T19:48:52.537Z,94539.73
2017-09-05T19:51:20.356Z,94540.70
2017-09-05T19:53:48.210Z,94540.73
2017-09-05T19:56:15.948Z,94543.59
2017-09-05T19:58:43.808Z,94538.23
2017-09-05T20:01:11.526Z,94535.37
2017-09-05T20:03:39.310Z,94543.24
2017-09-05T20:06:07.094Z,94545.59
2017-09-05T20:08:34.880Z,94547.85
2017-09-05T20:11:02.984Z,94544.76
2017-09-05T20:13:31.402Z,94541.19
2017-09-05T20:15:59.162Z,94546.02
2017-09-05T20:18:26.970Z,94551.59
2017-09-05T20:20:54.751Z,94552.86
2017-09-05T20:23:22.454Z,94548.57
2017-09-05T20:25:50.203Z,94546.19
2017-09-05T20:28:17.995Z,94545.71
2017-09-05T20:30:45.743Z,94548.33
2017-09-05T20:33:13.550Z,94547.97
2017-09-05T20:35:41.341Z,94558.53
2017-09-05T20:38:09.201Z,94551.06
2017-09-05T20:40:37.697Z,94551.02
2017-09-05T20:43:05.521Z,94557.95
2017-09-05T20:45:33.315Z,94554.31
2017-09-05T20:48:01.154Z,94544.63
2017-09-05T20:50:28.947Z,94558.07
2017-09-05T20:52:57.651Z,94551.55
2017-09-05T20:55:25.411Z,94548.34
2017-09-05T20:57:54.379Z,94549.25
2017-09-05T21:00:22.625Z,94552.94
2017-09-05T21:02:50.418Z,94548.19
2017-09-05T21:05:18.201Z,94542.94
2017-09-05T21:07:46.516Z,94551.55
2017-09-05T21:10:14.216Z,94548.38
2017-09-05T21:12:42.206Z,94541.07
2017-09-05T21:15:10.240Z,94541.44
2017-09-05T21:17:38.069Z,94543.56
2017-09-05T21:20:05.902Z,94544.70
2017-09-05T21:22:33.724Z,94536.34
2017-09-05T21:25:02.471Z,94534.80
2017-09-05T21:27:30.240Z,94536.00
2017-09-05T21:29:57.977Z,94533.75
2017-09-05T21:32:25.731Z,94522.73
2017-09-05T21:34:53.579Z,94527.02
2017-09-05T21:37:21.366Z,94529.59
2017-09-05T21:39:49.123Z,94528.67
2017-09-05T21:42:16.951Z,94526.92
2017-09-05T21:44:44.735Z,94527.54
2017-09-05T21:47:12.480Z,94529.13
2017-09-05T21:49:41.163Z,94527.81
2017-09-05T21:52:08.988Z,94535.70
2017-09-05T21:54:36.782Z,94531.37
2017-09-05T21:57:04.539Z,94526.63
2017-09-05T21:59:32.349Z,94521.23
2017-09-05T22:02:00.860Z,94517.30
2017-09-05T22:04:29.487Z,94521.32
2017-09-05T22:06:57.195Z,94527.26
2017-09-05T22:09:25.036Z,94525.50
2017-09-05T22:11:52.808Z,94515.18
2017-09-05T22:14:25.982Z,94515.91
2017-09-05T22:16:53.728Z,94524.41
2017-09-05T22:19:27.387Z,94518.03
2017-09-05T22:21:55.164Z,94528.67
2017-09-05T22:24:28.789Z,94531.57
2017-09-05T22:27:02.868Z,94529.78
2017-09-05T22:29:30.900Z,94523.52
2017-09-05T22:31:58.711Z,94530.27
2017-09-05T22:34:26.459Z,94520.80
2017-09-05T22:36:54.169Z,94522.63
2017-09-05T22:39:21.918Z,94522.09
2017-09-05T22:41:49.621Z,94522.55
2017-09-05T22:44:17.411Z,94519.23
2017-09-05T22:46:45.136Z,94534.63
2017-09-05T22:49:13.003Z,94526.95
2017-09-05T22:51:40.793Z,94522.41
2017-09-05T22:54:08.504Z,94532.88
2017-09-05T22:56:36.284Z,94528.27
2017-09-05T22:59:04.083Z,94523.45
2017-09-05T23:01:31.874Z,94520.87
2017-09-05T23:03:59.589Z,94526.97
2017-09-05T23:06:27.277Z,94515.09
2017-09-05T23:08:55.048Z,94516.97
2017-09-05T23:11:22.881Z,94518.38
2017-09-05T23:13:50.920Z,94512.59
2017-09-05T23:16:18.625Z,94515.38
2017-09-05T23:18:46.325Z,94514.47
2017-09-05T23:21:14.285Z,94505.87
2017-09-05T23:23:41.990Z,94509.39
2017-09-05T23:26:09.776Z,94513.53
2017-09-05T23:28:37.500Z,94505.02
2017-09-05T23:31:05.369Z,94500.88
2017-09-05T23:33:34.052Z,94492.76
2017-09-05T23:36:01.800Z,94499.64
2017-09-05T23:38:29.897Z,94496.80
2017-09-05T23:40:57.626Z,94493.62
2017-09-05T23:43:25.412Z,94492.58
2017-09-05T23:45:53.137Z,94490.14
2017-09-05T23:48:20.835Z,94493.38
2017-09-05T23:50:48.619Z,94498.31
2017-09-05T23:53:16.361Z,94493.33
2017-09-05T23:55:44.110Z,94499.00
2017-09-05T23:58:12.360Z,94487.30
